Time;durP1;ratioP1;P1;durP2;ratioP2;P2;SDS_P1;SDS_P2;PMS_P1;PMS_P2;Temp;Humidity;BMP_temperature;BMP_pressure;BME280_temperature;BME280_humidity;BME280_pressure;Samples;Min_cycle;Max_cycle;Signal;HPM_P1;HPM_P2
2021/03/23 05:23:12;;;;;;;14.90;7.65;;;;;;;;;;6260618;22;884351;-79
2021/03/23 05:25:38;;;;;;;13.85;7.78;;;;;;;;;;6285890;22;20018;-79
2021/03/23 05:28:04;;;;;;;14.68;8.50;;;;;;;;;;6313715;22;20332;-79
2021/03/23 05:30:30;;;;;;;14.43;7.63;;;;;;;;;;6313678;22;19995;-79
2021/03/23 05:32:55;;;;;;;13.90;7.55;;;;;;;;;;6295679;22;20380;-79
2021/03/23 05:35:21;;;;;;;15.13;9.15;;;;;;;;;;6281977;22;20026;-79
2021/03/23 05:37:47;;;;;;;10.77;7.22;;;;;;;;;;6282118;22;20566;-79
2021/03/23 05:40:24;;;;;;;15.05;7.65;;;;;;;;;;6282295;22;20007;-80
2021/03/23 05:43:00;;;;;;;12.25;8.20;;;;;;;;;;6282689;22;20004;-79
2021/03/23 05:45:32;;;;;;;14.02;8.10;;;;;;;;;;6282563;22;19999;-80
2021/03/23 05:48:04;;;;;;;15.02;8.07;;;;;;;;;;6282942;22;20376;-79
2021/03/23 05:50:31;;;;;;;9.98;6.78;;;;;;;;;;6255249;22;20003;-80
2021/03/23 05:53:16;;;;;;;12.85;7.32;;;;;;;;;;6249780;22;20211;-79
2021/03/23 05:55:46;;;;;;;12.88;7.65;;;;;;;;;;6255039;22;20061;-78
2021/03/23 05:58:21;;;;;;;14.87;7.93;;;;;;;;;;6254367;22;20098;-79
2021/03/23 06:00:54;;;;;;;12.50;6.63;;;;;;;;;;6254314;22;20065;-78
2021/03/23 06:03:22;;;;;;;12.90;8.43;;;;;;;;;;6254654;22;20427;-79
2021/03/23 06:05:59;;;;;;;13.63;7.68;;;;;;;;;;6254516;22;20388;-78
2021/03/23 06:13:07;;;;;;;13.80;8.48;;;;;;;;;;5099312;28;20356;-79
2021/03/23 06:15:42;;;;;;;10.50;7.03;;;;;;;;;;5069539;28;20024;-79
2021/03/23 06:18:27;;;;;;;12.02;7.28;;;;;;;;;;5098723;28;20046;-79
2021/03/23 06:21:00;;;;;;;13.13;7.85;;;;;;;;;;5074122;28;20036;-79
2021/03/23 06:23:34;;;;;;;11.88;7.28;;;;;;;;;;5098601;28;20765;-79
2021/03/23 06:26:21;;;;;;;15.57;8.73;;;;;;;;;;5095641;28;20028;-80
2021/03/23 06:29:06;;;;;;;13.52;8.73;;;;;;;;;;5074550;28;20020;-80
2021/03/23 06:31:34;;;;;;;15.75;8.70;;;;;;;;;;5071655;28;20083;-80
2021/03/23 06:34:00;;;;;;;12.27;8.27;;;;;;;;;;5070326;28;20040;-80
2021/03/23 06:36:31;;;;;;;17.05;9.82;;;;;;;;;;5073258;28;20052;-80
2021/03/23 06:38:57;;;;;;;16.02;9.13;;;;;;;;;;5088697;28;20036;-80
2021/03/23 06:41:23;;;;;;;18.50;9.30;;;;;;;;;;5073598;28;20029;-79
2021/03/23 06:43:49;;;;;;;15.48;9.52;;;;;;;;;;5084808;28;20044;-79
2021/03/23 06:46:35;;;;;;;17.70;10.02;;;;;;;;;;5071086;28;20463;-79
2021/03/23 06:49:02;;;;;;;18.42;9.25;;;;;;;;;;5075064;28;20093;-79
2021/03/23 06:51:28;;;;;;;22.25;11.02;;;;;;;;;;5093228;28;20030;-79
2021/03/23 06:53:54;;;;;;;15.68;9.38;;;;;;;;;;5075437;28;20535;-79
2021/03/23 06:56:24;;;;;;;18.30;9.95;;;;;;;;;;5089382;28;20469;-79
2021/03/23 06:59:08;;;;;;;19.02;11.00;;;;;;;;;;5089583;28;20028;-79
2021/03/23 07:01:39;;;;;;;18.23;10.65;;;;;;;;;;5071950;28;20035;-79
2021/03/23 07:04:16;;;;;;;18.00;12.32;;;;;;;;;;5080333;28;20024;-79
2021/03/23 07:06:43;;;;;;;20.48;11.30;;;;;;;;;;5081601;28;20017;-79
2021/03/23 07:09:12;;;;;;;20.73;11.57;;;;;;;;;;5070361;28;20032;-81
2021/03/23 07:11:50;;;;;;;21.20;11.80;;;;;;;;;;5083840;28;20027;-79
2021/03/23 07:14:23;;;;;;;25.60;14.60;;;;;;;;;;5082253;28;20032;-79
2021/03/23 07:16:49;;;;;;;21.65;13.02;;;;;;;;;;5078656;28;20031;-80
2021/03/23 07:19:15;;;;;;;21.08;12.38;;;;;;;;;;5084572;28;20034;-80
2021/03/23 07:21:49;;;;;;;19.90;12.63;;;;;;;;;;5068540;28;20035;-80
2021/03/23 07:24:20;;;;;;;23.67;13.80;;;;;;;;;;5055210;28;20027;-81
2021/03/23 07:27:01;;;;;;;22.20;13.65;;;;;;;;;;5066105;28;20099;-81
2021/03/23 07:29:32;;;;;;;22.88;13.82;;;;;;;;;;5071099;28;20084;-81
2021/03/23 07:32:17;;;;;;;28.20;14.73;;;;;;;;;;5057921;28;20033;-81
2021/03/23 07:35:01;;;;;;;42.70;27.13;;;;;;;;;;5052861;28;20110;-81
2021/03/23 07:37:46;;;;;;;33.47;19.42;;;;;;;;;;5066125;28;20086;-81
2021/03/23 07:40:20;;;;;;;34.30;18.98;;;;;;;;;;5068309;28;20021;-83
2021/03/23 07:42:56;;;;;;;34.63;19.30;;;;;;;;;;5045260;28;20095;-83
2021/03/23 07:45:22;;;;;;;21.83;13.55;;;;;;;;;;5067867;28;20024;-83
2021/03/23 07:47:58;;;;;;;30.17;16.15;;;;;;;;;;5055112;28;20033;-83
2021/03/23 07:50:25;;;;;;;34.25;17.05;;;;;;;;;;5050243;28;20049;-84
2021/03/23 07:52:54;;;;;;;26.67;14.23;;;;;;;;;;5042467;28;20115;-82
2021/03/23 07:55:21;;;;;;;28.88;16.00;;;;;;;;;;5059016;28;20104;-84
2021/03/23 07:57:54;;;;;;;34.08;15.13;;;;;;;;;;5043204;28;20021;-83
2021/03/23 08:00:22;;;;;;;21.45;12.15;;;;;;;;;;5062288;28;20020;-82
2021/03/23 08:02:54;;;;;;;23.65;12.23;;;;;;;;;;5045031;28;20055;-83
2021/03/23 08:05:32;;;;;;;22.85;11.90;;;;;;;;;;5057807;28;20091;-83
2021/03/23 08:08:22;;;;;;;21.67;12.20;;;;;;;;;;5053402;28;20035;-83
2021/03/23 08:11:00;;;;;;;21.48;12.02;;;;;;;;;;5052194;28;20115;-82
2021/03/23 08:13:36;;;;;;;20.95;12.52;;;;;;;;;;5059582;28;20063;-82
2021/03/23 08:16:11;;;;;;;18.85;11.55;;;;;;;;;;5046855;28;20043;-83
2021/03/23 08:18:44;;;;;;;19.90;10.55;;;;;;;;;;5046767;28;20021;-83
2021/03/23 08:21:17;;;;;;;21.40;12.15;;;;;;;;;;5068790;28;20033;-82
2021/03/23 08:23:46;;;;;;;18.23;10.85;;;;;;;;;;5044583;28;20467;-82
2021/03/23 08:26:14;;;;;;;15.70;10.25;;;;;;;;;;5065358;28;20028;-81
2021/03/23 08:28:49;;;;;;;18.10;10.63;;;;;;;;;;5062938;28;20016;-80
2021/03/23 08:31:25;;;;;;;22.92;11.20;;;;;;;;;;5066780;28;20036;-81
2021/03/23 08:33:51;;;;;;;18.75;11.68;;;;;;;;;;5050438;28;20139;-81
2021/03/23 08:36:36;;;;;;;16.92;10.38;;;;;;;;;;5066077;28;20457;-81
2021/03/23 08:39:17;;;;;;;20.73;10.95;;;;;;;;;;5050369;28;20021;-82
2021/03/23 08:41:48;;;;;;;17.95;10.20;;;;;;;;;;5051971;28;20048;-81
2021/03/23 08:44:33;;;;;;;13.88;9.00;;;;;;;;;;5062500;28;20097;-81
2021/03/23 08:47:03;;;;;;;17.27;8.98;;;;;;;;;;5044253;28;20323;-81
2021/03/23 08:49:29;;;;;;;17.48;10.20;;;;;;;;;;5061490;28;20072;-81
2021/03/23 08:51:55;;;;;;;17.15;9.40;;;;;;;;;;5044494;28;20028;-81
2021/03/23 08:54:39;;;;;;;19.20;11.13;;;;;;;;;;5048098;28;20108;-82
2021/03/23 08:57:05;;;;;;;15.63;9.15;;;;;;;;;;5047834;28;20064;-81
2021/03/23 08:59:31;;;;;;;17.02;10.13;;;;;;;;;;5063250;28;20024;-81
2021/03/23 09:01:57;;;;;;;20.90;10.18;;;;;;;;;;5052041;28;20086;-82
2021/03/23 09:04:23;;;;;;;18.60;11.23;;;;;;;;;;5046129;28;20913;-82
2021/03/23 09:06:56;;;;;;;14.82;9.25;;;;;;;;;;5058564;28;20043;-82
2021/03/23 09:09:28;;;;;;;23.95;10.35;;;;;;;;;;5072713;28;20036;-83
2021/03/23 09:11:53;;;;;;;;;;;;;;;;;;5055716;28;20032;-82
2021/03/23 09:14:22;;;;;;;15.32;8.07;;;;;;;;;;5048829;28;19917;-82
2021/03/23 09:16:57;;;;;;;15.05;7.75;;;;;;;;;;5050346;28;20028;-81
2021/03/23 09:19:41;;;;;;;13.40;7.10;;;;;;;;;;5046928;28;20078;-83
2021/03/23 09:22:07;;;;;;;13.10;7.43;;;;;;;;;;5056074;28;20078;-82
2021/03/23 09:24:34;;;;;;;11.95;6.88;;;;;;;;;;5065697;28;20048;-83
2021/03/23 09:27:01;;;;;;;10.57;6.38;;;;;;;;;;5065538;28;20464;-80
2021/03/23 09:29:34;;;;;;;11.27;7.05;;;;;;;;;;5058370;28;20024;-82
2021/03/23 09:32:08;;;;;;;14.43;6.97;;;;;;;;;;5054055;28;20481;-82
2021/03/23 09:34:52;;;;;;;12.02;7.03;;;;;;;;;;5063774;28;20033;-82
2021/03/23 09:37:37;;;;;;;10.95;6.72;;;;;;;;;;5067169;28;20081;-82
2021/03/23 09:40:20;;;;;;;12.77;6.65;;;;;;;;;;5053022;28;20039;-81
2021/03/23 09:43:06;;;;;;;10.70;5.43;;;;;;;;;;5068464;28;20029;-82
2021/03/23 09:45:34;;;;;;;13.23;6.53;;;;;;;;;;5048277;28;20031;-81
2021/03/23 09:48:02;;;;;;;11.63;5.30;;;;;;;;;;5062583;28;20111;-81
2021/03/23 09:50:34;;;;;;;7.22;4.78;;;;;;;;;;5044364;28;20020;-81
2021/03/23 09:53:02;;;;;;;7.95;4.38;;;;;;;;;;5048565;28;20495;-82
2021/03/23 09:55:28;;;;;;;7.45;4.03;;;;;;;;;;5047036;28;20032;-82
2021/03/23 09:57:54;;;;;;;5.53;3.60;;;;;;;;;;5063567;28;20027;-82
2021/03/23 10:00:30;;;;;;;7.90;4.35;;;;;;;;;;5061746;28;20025;-82
2021/03/23 10:02:56;;;;;;;8.32;4.85;;;;;;;;;;5048835;28;20037;-81
2021/03/23 10:05:24;;;;;;;9.93;5.70;;;;;;;;;;5050636;28;20047;-81
2021/03/23 10:07:51;;;;;;;8.32;4.60;;;;;;;;;;5047196;28;20777;-81
2021/03/23 10:10:24;;;;;;;8.57;4.70;;;;;;;;;;5052088;28;20033;-81
2021/03/23 10:12:50;;;;;;;10.98;7.53;;;;;;;;;;5064293;28;20016;-81
2021/03/23 10:15:23;;;;;;;20.67;10.15;;;;;;;;;;5064414;28;20119;-82
2021/03/23 10:17:49;;;;;;;11.45;5.60;;;;;;;;;;5047573;28;20567;-82
2021/03/23 10:20:21;;;;;;;13.70;8.32;;;;;;;;;;5061399;28;20021;-83
2021/03/23 10:22:54;;;;;;;21.25;11.73;;;;;;;;;;5049924;28;20032;-83
2021/03/23 10:25:20;;;;;;;11.02;6.68;;;;;;;;;;5054267;28;20050;-83
2021/03/23 10:27:46;;;;;;;10.13;5.05;;;;;;;;;;5066638;28;20032;-82
2021/03/23 10:30:15;;;;;;;7.43;3.75;;;;;;;;;;5064439;28;20699;-83
2021/03/23 10:32:46;;;;;;;7.72;4.88;;;;;;;;;;5048487;28;20496;-83
2021/03/23 10:35:24;;;;;;;8.02;4.57;;;;;;;;;;5066868;28;20029;-83
2021/03/23 10:38:09;;;;;;;7.38;4.53;;;;;;;;;;5068303;28;20023;-83
2021/03/23 10:40:38;;;;;;;9.38;5.25;;;;;;;;;;5050128;28;20024;-83
2021/03/23 10:43:04;;;;;;;8.73;4.55;;;;;;;;;;5047999;28;20039;-82
2021/03/23 10:45:34;;;;;;;7.03;4.22;;;;;;;;;;5064519;28;20028;-83
2021/03/23 10:50:24;;;;;;;7.50;4.40;;;;;;;;;;5067447;28;20411;-83
2021/03/23 10:52:50;;;;;;;8.75;4.68;;;;;;;;;;5074435;28;20029;-83
2021/03/23 10:55:27;;;;;;;8.10;4.70;;;;;;;;;;5062204;28;20136;-84
2021/03/23 10:58:12;;;;;;;6.93;4.30;;;;;;;;;;5059245;28;20052;-83
2021/03/23 11:00:39;;;;;;;10.23;5.05;;;;;;;;;;5062242;28;20392;-81
2021/03/23 11:03:11;;;;;;;8.45;4.35;;;;;;;;;;5060275;28;20029;-83
2021/03/23 11:05:45;;;;;;;7.97;4.70;;;;;;;;;;5059822;28;20086;-81
2021/03/23 11:08:12;;;;;;;7.85;4.95;;;;;;;;;;5053814;28;20501;-81
2021/03/23 11:10:38;;;;;;;7.82;5.15;;;;;;;;;;5055041;28;20400;-82
2021/03/23 11:13:04;;;;;;;7.07;4.70;;;;;;;;;;5053306;28;20024;-83
2021/03/23 11:15:35;;;;;;;8.48;4.15;;;;;;;;;;5069021;28;20059;-81
2021/03/23 11:22:37;;;;;;;7.93;4.97;;;;;;;;;;5114012;27;20933;-85
2021/03/23 11:25:05;;;;;;;9.45;5.72;;;;;;;;;;5100366;28;20032;-82
2021/03/23 11:27:31;;;;;;;7.80;4.90;;;;;;;;;;5103642;28;20059;-84
2021/03/23 11:32:15;;;;;;;8.07;4.80;;;;;;;;;;5089274;28;20465;-83
2021/03/23 11:34:41;;;;;;;9.30;4.60;;;;;;;;;;5069769;28;20342;-84
2021/03/23 11:37:07;;;;;;;9.23;5.20;;;;;;;;;;5062381;28;20027;-84
2021/03/23 11:42:07;;;;;;;7.32;5.00;;;;;;;;;;5082993;28;20373;-83
2021/03/23 11:44:35;;;;;;;9.50;5.10;;;;;;;;;;5044990;28;20047;-84
2021/03/23 11:47:16;;;;;;;7.38;4.35;;;;;;;;;;5053545;28;20511;-84
2021/03/23 11:49:42;;;;;;;8.57;4.72;;;;;;;;;;5055495;28;20224;-84
2021/03/23 11:52:08;;;;;;;8.50;5.25;;;;;;;;;;5056348;28;20135;-83
2021/03/23 11:54:34;;;;;;;7.95;5.07;;;;;;;;;;5049051;28;20078;-84
2021/03/23 11:56:59;;;;;;;7.07;4.63;;;;;;;;;;5055482;28;20052;-85
2021/03/23 11:59:25;;;;;;;8.93;4.70;;;;;;;;;;5052665;28;20444;-84
2021/03/23 12:01:51;;;;;;;8.10;5.38;;;;;;;;;;5073160;28;20472;-83
2021/03/23 12:04:16;;;;;;;7.88;4.50;;;;;;;;;;5056334;28;20047;-84
2021/03/23 12:06:58;;;;;;;9.23;4.45;;;;;;;;;;5058865;28;20451;-84
2021/03/23 12:09:35;;;;;;;7.72;4.82;;;;;;;;;;5058038;28;20047;-84
2021/03/23 12:12:08;;;;;;;10.85;5.25;;;;;;;;;;5065753;28;20066;-83
2021/03/23 12:14:44;;;;;;;8.07;4.88;;;;;;;;;;5061151;28;20048;-84
2021/03/23 12:17:12;;;;;;;8.75;5.28;;;;;;;;;;5071962;28;20071;-85
2021/03/23 12:19:43;;;;;;;9.55;5.10;;;;;;;;;;5054267;28;20032;-85
2021/03/23 12:22:10;;;;;;;39.78;23.75;;;;;;;;;;5057858;28;20036;-84
2021/03/23 12:24:37;;;;;;;16.80;9.75;;;;;;;;;;5047732;28;20435;-83
2021/03/23 12:27:03;;;;;;;12.13;7.57;;;;;;;;;;5054905;28;20028;-84
2021/03/23 12:29:29;;;;;;;9.68;5.90;;;;;;;;;;5056356;28;20017;-84
2021/03/23 12:31:55;;;;;;;12.93;6.45;;;;;;;;;;5076740;28;20020;-83
2021/03/23 12:34:21;;;;;;;10.63;6.68;;;;;;;;;;5062751;28;20464;-83
2021/03/23 12:36:47;;;;;;;7.75;5.43;;;;;;;;;;5056936;28;20049;-83
2021/03/23 12:39:16;;;;;;;8.70;4.75;;;;;;;;;;5079542;28;20056;-81
2021/03/23 12:41:42;;;;;;;11.40;6.13;;;;;;;;;;5079754;28;20025;-81
2021/03/23 12:44:07;;;;;;;9.93;5.32;;;;;;;;;;5069870;28;20028;-82
2021/03/23 12:46:34;;;;;;;8.27;4.40;;;;;;;;;;5061004;28;20503;-82
2021/03/23 12:49:00;;;;;;;7.18;4.70;;;;;;;;;;5080017;28;20005;-80
2021/03/23 12:51:29;;;;;;;19.00;10.70;;;;;;;;;;5061338;28;20039;-83
2021/03/23 12:53:55;;;;;;;12.25;8.45;;;;;;;;;;5061861;28;20024;-82
2021/03/23 12:56:21;;;;;;;11.00;6.05;;;;;;;;;;5046052;28;20025;-83
2021/03/23 12:58:47;;;;;;;9.10;5.45;;;;;;;;;;5057516;28;20078;-84
2021/03/23 13:01:14;;;;;;;9.18;5.10;;;;;;;;;;5033115;28;20393;-83
2021/03/23 13:03:40;;;;;;;9.55;5.75;;;;;;;;;;5055923;28;20059;-83
2021/03/23 13:06:08;;;;;;;7.68;4.68;;;;;;;;;;5064841;28;20487;-82
2021/03/23 13:08:35;;;;;;;8.00;4.65;;;;;;;;;;5036193;28;20032;-83
2021/03/23 13:11:03;;;;;;;7.75;4.85;;;;;;;;;;5042947;28;20024;-84
2021/03/23 13:13:30;;;;;;;9.85;5.88;;;;;;;;;;5044348;28;20076;-85
2021/03/23 13:15:57;;;;;;;6.97;4.38;;;;;;;;;;5042994;28;20035;-85
2021/03/23 13:18:23;;;;;;;10.00;5.22;;;;;;;;;;5042145;28;20116;-84
2021/03/23 13:20:49;;;;;;;8.15;5.07;;;;;;;;;;5041291;28;20032;-85
2021/03/23 13:23:34;;;;;;;9.30;5.13;;;;;;;;;;5046107;28;20139;-84
2021/03/23 13:26:02;;;;;;;8.48;5.30;;;;;;;;;;5042467;28;20054;-85
2021/03/23 13:28:39;;;;;;;8.43;5.10;;;;;;;;;;5045051;28;20025;-84
2021/03/23 13:31:05;;;;;;;8.25;5.40;;;;;;;;;;5043407;28;20062;-85
2021/03/23 13:33:35;;;;;;;10.48;5.45;;;;;;;;;;5056599;28;20029;-83
2021/03/23 13:36:01;;;;;;;11.32;5.60;;;;;;;;;;5050924;28;20036;-83
2021/03/23 13:38:28;;;;;;;8.10;4.80;;;;;;;;;;5055441;28;20028;-83
2021/03/23 13:40:54;;;;;;;6.78;4.35;;;;;;;;;;5038420;28;20555;-83
2021/03/23 13:43:20;;;;;;;8.35;3.97;;;;;;;;;;5040194;28;20033;-83
2021/03/23 13:45:55;;;;;;;9.15;5.13;;;;;;;;;;5045274;28;20033;-84
2021/03/23 13:48:26;;;;;;;8.20;4.93;;;;;;;;;;5050167;28;20139;-84
2021/03/23 13:50:53;;;;;;;7.97;5.03;;;;;;;;;;5055460;28;20035;-83
2021/03/23 13:53:21;;;;;;;11.20;5.13;;;;;;;;;;5055584;28;20056;-83
2021/03/23 13:55:47;;;;;;;8.30;4.97;;;;;;;;;;5055383;28;20034;-85
2021/03/23 13:58:13;;;;;;;11.60;5.35;;;;;;;;;;5057883;28;20020;-83
2021/03/23 14:00:41;;;;;;;10.98;6.45;;;;;;;;;;5062675;28;20020;-83
2021/03/23 14:03:07;;;;;;;8.77;5.88;;;;;;;;;;5060924;28;20024;-83
2021/03/23 14:05:33;;;;;;;9.52;5.32;;;;;;;;;;5056588;28;20059;-84
2021/03/23 14:08:01;;;;;;;8.43;5.35;;;;;;;;;;5053797;28;20028;-84
2021/03/23 14:10:28;;;;;;;7.95;5.30;;;;;;;;;;5053836;28;20028;-83
2021/03/23 14:12:56;;;;;;;8.88;4.65;;;;;;;;;;5043799;28;20045;-83
2021/03/23 14:15:42;;;;;;;8.15;4.82;;;;;;;;;;5038153;28;20028;-83
2021/03/23 14:18:09;;;;;;;10.52;5.03;;;;;;;;;;5045225;28;20044;-84
2021/03/23 14:20:35;;;;;;;10.45;6.20;;;;;;;;;;5061179;28;20024;-83
2021/03/23 14:23:03;;;;;;;12.18;5.45;;;;;;;;;;5046462;28;20039;-83
2021/03/23 14:25:29;;;;;;;8.57;5.18;;;;;;;;;;5067407;28;21382;-83
2021/03/23 14:27:55;;;;;;;9.65;5.55;;;;;;;;;;5055242;28;20052;-83
2021/03/23 14:30:32;;;;;;;8.88;5.78;;;;;;;;;;5055874;28;20496;-82
2021/03/23 14:32:58;;;;;;;8.15;5.00;;;;;;;;;;5047505;28;20465;-83
2021/03/23 14:35:24;;;;;;;8.88;4.78;;;;;;;;;;5040573;28;20135;-83
2021/03/23 14:37:51;;;;;;;9.32;5.45;;;;;;;;;;5041976;28;20092;-81
2021/03/23 14:40:24;;;;;;;10.27;5.53;;;;;;;;;;5060889;28;20035;-84
2021/03/23 14:42:50;;;;;;;9.13;5.32;;;;;;;;;;5042648;28;20036;-84
2021/03/23 14:45:16;;;;;;;8.63;5.35;;;;;;;;;;5055994;28;20029;-82
2021/03/23 14:47:41;;;;;;;8.43;5.28;;;;;;;;;;5043326;28;20028;-82
2021/03/23 14:50:08;;;;;;;9.18;5.38;;;;;;;;;;5061219;28;20025;-83
2021/03/23 14:52:34;;;;;;;9.15;5.03;;;;;;;;;;5044558;28;20124;-83
2021/03/23 14:55:01;;;;;;;10.60;4.82;;;;;;;;;;5054726;28;20021;-83
2021/03/23 14:57:28;;;;;;;8.35;5.53;;;;;;;;;;5059298;28;20109;-83
2021/03/23 14:59:54;;;;;;;7.75;5.70;;;;;;;;;;5048194;28;20024;-83
2021/03/23 15:02:19;;;;;;;7.47;5.05;;;;;;;;;;5040623;28;20020;-83
2021/03/23 15:04:45;;;;;;;10.25;6.00;;;;;;;;;;5047097;28;20380;-83
2021/03/23 15:07:17;;;;;;;8.15;5.47;;;;;;;;;;5058421;28;20132;-83
2021/03/23 15:09:42;;;;;;;9.50;5.78;;;;;;;;;;5035369;28;20024;-83
2021/03/23 15:12:10;;;;;;;11.00;5.68;;;;;;;;;;5058675;28;20031;-83
2021/03/23 15:14:36;;;;;;;9.70;6.13;;;;;;;;;;5031130;28;20039;-83
2021/03/23 15:19:20;;;;;;;11.32;5.68;;;;;;;;;;5119840;27;20415;-81
2021/03/23 15:21:47;;;;;;;8.68;5.28;;;;;;;;;;5116050;28;20024;-81
2021/03/23 15:24:21;;;;;;;9.93;6.00;;;;;;;;;;5098751;28;20700;-80
2021/03/23 15:26:49;;;;;;;10.13;5.63;;;;;;;;;;5099978;28;20027;-84
2021/03/23 15:29:19;;;;;;;8.77;5.03;;;;;;;;;;5099829;28;20023;-85
2021/03/23 15:31:45;;;;;;;8.43;5.27;;;;;;;;;;5101290;28;20026;-84
2021/03/23 15:34:11;;;;;;;9.15;5.85;;;;;;;;;;5100001;28;20273;-86
2021/03/23 15:36:39;;;;;;;10.27;5.75;;;;;;;;;;5102554;28;20019;-83
2021/03/23 15:39:13;;;;;;;9.02;5.68;;;;;;;;;;5102434;28;20103;-83
2021/03/23 15:41:38;;;;;;;10.38;6.25;;;;;;;;;;5097425;28;20393;-83
2021/03/23 15:44:04;;;;;;;9.57;5.93;;;;;;;;;;5094769;28;20016;-83
2021/03/23 15:46:30;;;;;;;9.55;5.72;;;;;;;;;;5095547;28;20019;-82
2021/03/23 15:48:55;;;;;;;9.68;5.80;;;;;;;;;;5098023;28;20024;-84
2021/03/23 15:51:25;;;;;;;9.43;5.93;;;;;;;;;;5094506;28;20111;-83
2021/03/23 15:53:52;;;;;;;9.18;5.60;;;;;;;;;;5096817;28;20496;-83
2021/03/23 15:56:30;;;;;;;10.23;5.80;;;;;;;;;;5098475;28;20076;-85
2021/03/23 15:58:55;;;;;;;11.15;7.20;;;;;;;;;;5097574;28;20054;-84
2021/03/23 16:01:21;;;;;;;10.82;7.03;;;;;;;;;;5110646;28;20036;-83
2021/03/23 16:03:47;;;;;;;12.90;6.95;;;;;;;;;;5100179;28;20028;-82
2021/03/23 16:06:16;;;;;;;11.60;7.70;;;;;;;;;;5103181;28;20024;-83
2021/03/23 16:08:42;;;;;;;14.35;8.52;;;;;;;;;;5101386;28;20559;-82
2021/03/23 16:11:09;;;;;;;11.57;6.80;;;;;;;;;;5101266;28;20012;-82
2021/03/23 16:13:34;;;;;;;10.90;7.30;;;;;;;;;;5105052;28;20019;-81
2021/03/23 16:16:01;;;;;;;12.68;6.80;;;;;;;;;;5102075;28;20036;-83
2021/03/23 16:18:27;;;;;;;12.23;6.90;;;;;;;;;;5099792;28;20476;-84
2021/03/23 16:20:53;;;;;;;11.13;6.85;;;;;;;;;;5103033;28;20111;-83
2021/03/23 16:23:24;;;;;;;12.10;7.32;;;;;;;;;;5101939;28;20131;-87
2021/03/23 16:25:50;;;;;;;12.13;7.18;;;;;;;;;;5104979;28;20022;-83
2021/03/23 16:28:18;;;;;;;14.00;7.75;;;;;;;;;;5095643;28;20020;-83
2021/03/23 16:30:44;;;;;;;11.63;7.07;;;;;;;;;;5086341;28;20035;-83
2021/03/23 16:33:10;;;;;;;13.13;7.55;;;;;;;;;;5088760;28;20445;-83
2021/03/23 16:40:12;;;;;;;10.88;6.60;;;;;;;;;;5118480;27;20424;-81
2021/03/23 16:42:37;;;;;;;10.30;6.75;;;;;;;;;;5115906;27;20476;-82
2021/03/23 16:45:04;;;;;;;12.80;7.55;;;;;;;;;;5104224;28;20042;-83
2021/03/23 16:47:30;;;;;;;12.02;8.27;;;;;;;;;;5115198;28;20028;-83
2021/03/23 16:52:14;;;;;;;14.57;7.47;;;;;;;;;;5076250;27;20888;-83
2021/03/23 16:54:39;;;;;;;13.15;7.15;;;;;;;;;;5087582;28;20024;-83
2021/03/23 16:57:06;;;;;;;10.27;6.38;;;;;;;;;;5070876;28;20562;-82
2021/03/23 16:59:32;;;;;;;14.93;8.18;;;;;;;;;;5070854;28;20028;-84
2021/03/23 17:01:57;;;;;;;11.85;6.93;;;;;;;;;;5072163;28;20012;-83
2021/03/23 17:04:23;;;;;;;11.38;6.88;;;;;;;;;;5073409;28;20548;-83
2021/03/23 17:06:49;;;;;;;10.95;6.45;;;;;;;;;;5076983;28;20614;-83
2021/03/23 17:09:15;;;;;;;11.98;7.18;;;;;;;;;;5076886;28;20028;-83
2021/03/23 17:11:40;;;;;;;12.20;7.68;;;;;;;;;;5073113;28;20020;-82
2021/03/23 17:14:07;;;;;;;11.18;6.60;;;;;;;;;;5073242;28;20033;-83
2021/03/23 17:16:33;;;;;;;17.10;8.98;;;;;;;;;;5069982;28;20056;-84
2021/03/23 17:18:58;;;;;;;11.75;7.75;;;;;;;;;;5068050;28;20032;-84
2021/03/23 17:21:24;;;;;;;13.52;7.18;;;;;;;;;;5070527;28;20048;-84
2021/03/23 17:23:50;;;;;;;10.70;6.68;;;;;;;;;;5072889;28;20035;-84
2021/03/23 17:26:15;;;;;;;11.30;7.15;;;;;;;;;;5074513;28;20024;-84
2021/03/23 17:28:41;;;;;;;12.60;7.15;;;;;;;;;;5063719;28;20123;-84
2021/03/23 17:31:09;;;;;;;13.10;6.35;;;;;;;;;;5067386;28;20025;-84
2021/03/23 17:33:37;;;;;;;10.77;6.93;;;;;;;;;;5068534;28;20020;-84
2021/03/23 17:36:03;;;;;;;11.35;6.50;;;;;;;;;;5060738;28;20036;-84
2021/03/23 17:38:29;;;;;;;9.40;5.70;;;;;;;;;;5066662;28;20017;-84
2021/03/23 17:40:55;;;;;;;11.50;5.57;;;;;;;;;;5066740;28;20082;-84
2021/03/23 17:43:21;;;;;;;8.30;4.88;;;;;;;;;;5064653;28;20024;-84
2021/03/23 17:45:48;;;;;;;9.90;5.80;;;;;;;;;;5065557;28;20028;-84
2021/03/23 17:48:15;;;;;;;9.02;4.78;;;;;;;;;;5066828;28;20092;-84
2021/03/23 17:50:43;;;;;;;10.00;4.00;;;;;;;;;;5077668;28;20031;-84
2021/03/23 17:53:10;;;;;;;9.13;4.50;;;;;;;;;;5071146;22;20042;-81
2021/03/23 17:55:36;;;;;;;6.40;4.13;;;;;;;;;;4998867;28;20076;-81
2021/03/23 17:58:01;;;;;;;6.38;4.22;;;;;;;;;;5004599;28;20498;-82
2021/03/23 18:00:28;;;;;;;7.90;4.07;;;;;;;;;;5008597;28;20045;-79
2021/03/23 18:02:54;;;;;;;8.13;4.20;;;;;;;;;;4998546;28;20490;-79
2021/03/23 18:05:21;;;;;;;8.70;3.78;;;;;;;;;;4992738;28;20026;-79
2021/03/23 18:07:47;;;;;;;8.63;4.20;;;;;;;;;;4995539;28;20026;-79
2021/03/23 18:10:14;;;;;;;8.50;4.63;;;;;;;;;;4987499;28;20114;-79
2021/03/23 18:12:39;;;;;;;5.68;3.63;;;;;;;;;;4992361;28;20453;-79
2021/03/23 18:15:11;;;;;;;11.57;4.80;;;;;;;;;;4990559;28;20030;-79
2021/03/23 18:17:37;;;;;;;8.57;4.55;;;;;;;;;;4990418;28;20022;-79
2021/03/23 18:20:03;;;;;;;6.82;4.45;;;;;;;;;;4995248;28;20101;-79
2021/03/23 18:22:29;;;;;;;5.97;3.85;;;;;;;;;;4994372;28;20027;-79
2021/03/23 18:24:55;;;;;;;7.38;4.18;;;;;;;;;;4995534;28;20034;-79
2021/03/23 18:27:20;;;;;;;6.03;4.03;;;;;;;;;;4995188;28;20037;-79
2021/03/23 18:29:46;;;;;;;7.63;4.13;;;;;;;;;;4994649;28;20034;-79
2021/03/23 18:32:12;;;;;;;6.53;4.32;;;;;;;;;;4989012;28;20118;-79
2021/03/23 18:34:39;;;;;;;7.28;3.60;;;;;;;;;;4994137;28;20483;-79
2021/03/23 18:39:23;;;;;;;4.88;2.97;;;;;;;;;;5109910;27;20777;-80
2021/03/23 18:41:48;;;;;;;7.43;4.15;;;;;;;;;;5105007;28;20027;-80
2021/03/23 18:44:14;;;;;;;5.68;3.72;;;;;;;;;;5098470;28;20025;-79
2021/03/23 18:46:40;;;;;;;5.82;3.78;;;;;;;;;;5088000;28;20024;-80
2021/03/23 18:49:05;;;;;;;7.53;3.72;;;;;;;;;;5090790;28;20028;-80
2021/03/23 18:51:31;;;;;;;6.93;4.15;;;;;;;;;;5087179;28;20038;-80
2021/03/23 18:53:57;;;;;;;7.07;4.57;;;;;;;;;;5091529;28;20791;-80
2021/03/23 18:56:22;;;;;;;7.38;4.43;;;;;;;;;;5089590;28;20062;-79
2021/03/23 18:58:48;;;;;;;8.50;4.63;;;;;;;;;;5094292;28;20111;-80
2021/03/23 19:01:14;;;;;;;10.65;4.00;;;;;;;;;;5090909;28;20085;-80
2021/03/23 19:03:39;;;;;;;7.18;4.18;;;;;;;;;;5096876;28;20019;-80
2021/03/23 19:06:05;;;;;;;7.47;3.95;;;;;;;;;;5092612;28;20016;-80
2021/03/23 19:08:31;;;;;;;6.30;4.05;;;;;;;;;;5092234;28;20020;-80
2021/03/23 19:10:56;;;;;;;6.00;3.65;;;;;;;;;;5095576;28;20081;-80
2021/03/23 19:13:23;;;;;;;9.38;4.18;;;;;;;;;;5091494;28;20484;-80
2021/03/23 19:15:50;;;;;;;7.47;3.97;;;;;;;;;;5081910;28;20036;-81
2021/03/23 19:18:17;;;;;;;5.80;3.47;;;;;;;;;;5088137;28;20032;-81
2021/03/23 19:20:43;;;;;;;9.02;4.10;;;;;;;;;;5090915;28;20032;-81
2021/03/23 19:23:08;;;;;;;10.52;4.57;;;;;;;;;;5080008;28;20020;-81
2021/03/23 19:27:52;;;;;;;9.10;3.97;;;;;;;;;;5082586;28;20462;-81
2021/03/23 19:30:18;;;;;;;7.53;3.83;;;;;;;;;;5052310;28;20045;-81
2021/03/23 19:32:44;;;;;;;4.95;3.22;;;;;;;;;;5045522;28;20099;-81
2021/03/23 19:35:10;;;;;;;9.13;3.55;;;;;;;;;;5045890;28;20025;-81
2021/03/23 19:37:36;;;;;;;6.63;3.45;;;;;;;;;;5044786;28;20041;-81
2021/03/23 19:40:03;;;;;;;7.55;3.90;;;;;;;;;;5044128;28;20037;-81
2021/03/23 19:42:29;;;;;;;10.65;4.82;;;;;;;;;;5043907;28;20056;-81
2021/03/23 19:44:54;;;;;;;7.03;4.10;;;;;;;;;;5038696;28;20032;-81
2021/03/23 19:47:20;;;;;;;5.82;3.55;;;;;;;;;;5044562;28;20032;-81
2021/03/23 19:49:46;;;;;;;8.20;3.97;;;;;;;;;;5042676;28;20116;-81
2021/03/23 19:52:11;;;;;;;7.85;4.15;;;;;;;;;;5046060;28;20807;-81
2021/03/23 19:54:37;;;;;;;8.13;3.35;;;;;;;;;;5044691;28;20789;-81
2021/03/23 19:57:10;;;;;;;9.18;3.95;;;;;;;;;;5058112;28;20086;-81
2021/03/23 19:59:36;;;;;;;6.53;3.58;;;;;;;;;;5062723;28;20032;-81
2021/03/23 20:02:02;;;;;;;6.25;3.33;;;;;;;;;;5044400;28;20461;-81
2021/03/23 20:04:28;;;;;;;9.30;4.63;;;;;;;;;;5040946;28;20025;-81
2021/03/23 20:06:54;;;;;;;8.52;4.65;;;;;;;;;;5043200;28;20108;-81
2021/03/23 20:09:19;;;;;;;8.98;3.92;;;;;;;;;;5045026;28;20382;-81
2021/03/23 20:11:45;;;;;;;7.13;3.05;;;;;;;;;;5041169;28;20021;-81
2021/03/23 20:14:17;;;;;;;9.27;4.75;;;;;;;;;;5041483;28;20013;-81
2021/03/23 20:16:43;;;;;;;6.00;3.40;;;;;;;;;;5039736;28;20044;-81
2021/03/23 20:19:09;;;;;;;6.63;3.95;;;;;;;;;;5042769;28;20040;-81
2021/03/23 20:21:34;;;;;;;7.55;3.63;;;;;;;;;;5040816;28;20563;-81
2021/03/23 20:24:00;;;;;;;5.80;3.50;;;;;;;;;;5048118;28;20025;-81
2021/03/23 20:26:26;;;;;;;6.45;3.60;;;;;;;;;;5039919;28;20048;-81
2021/03/23 20:28:52;;;;;;;7.90;3.45;;;;;;;;;;5041369;28;20029;-81
2021/03/23 20:31:18;;;;;;;6.75;3.53;;;;;;;;;;5043058;28;20393;-81
2021/03/23 20:33:43;;;;;;;7.30;4.05;;;;;;;;;;5043074;28;20033;-81
2021/03/23 20:36:10;;;;;;;7.90;4.43;;;;;;;;;;5045800;28;20381;-81
2021/03/23 20:38:36;;;;;;;7.32;3.60;;;;;;;;;;5033180;28;20029;-81